Time;durP1;ratioP1;P1;durP2;ratioP2;P2;SDS_P1;SDS_P2;PMS_P1;PMS_P2;Temp;Humidity;BMP_temperature;BMP_pressure;BME280_temperature;BME280_humidity;BME280_pressure;Samples;Min_cycle;Max_cycle;Signal;HPM_P1;HPM_P2
2021/03/27 00:00:26;;;;;;;5.349999;3.9;;;;;;;6.62;48.5791;95209.27;;;;
2021/03/27 00:01:30;;;;;;;5.349999;3.9;;;;;;;6.62;48.5791;95209.27;;;;
2021/03/27 00:02:38;;;;;;;5.349999;3.9;;;;;;;6.62;48.5791;95209.27;;;;
2021/03/27 00:03:46;;;;;;;5.349999;3.9;;;;;;;6.62;48.5791;95209.27;;;;
2021/03/27 00:04:51;;;;;;;5.349999;3.9;;;;;;;6.62;48.5791;95209.27;;;;
2021/03/27 00:05:59;;;;;;;5.349999;3.9;;;;;;;6.62;48.5791;95209.27;;;;
2021/03/27 00:07:04;;;;;;;5.349999;3.9;;;;;;;6.62;48.5791;95209.27;;;;
2021/03/27 00:08:11;;;;;;;4.900001;3.55;;;;;;;6.68;48.96094;95208.01;;;;
2021/03/27 00:09:18;;;;;;;4.900001;3.55;;;;;;;6.68;48.96094;95208.01;;;;
2021/03/27 00:10:34;;;;;;;4.900001;3.55;;;;;;;6.68;48.96094;95208.01;;;;
2021/03/27 00:11:41;;;;;;;4.900001;3.55;;;;;;;6.68;48.96094;95208.01;;;;
2021/03/27 00:12:49;;;;;;;4.900001;3.55;;;;;;;6.68;48.96094;95208.01;;;;
2021/03/27 00:13:55;;;;;;;4.900001;3.55;;;;;;;6.68;48.96094;95208.01;;;;
2021/03/27 00:14:59;;;;;;;4.900001;3.55;;;;;;;6.68;48.96094;95208.01;;;;
2021/03/27 00:16:12;;;;;;;4.900001;3.55;;;;;;;6.68;48.96094;95208.01;;;;
2021/03/27 00:17:19;;;;;;;4.900001;3.55;;;;;;;6.68;48.96094;95208.01;;;;
2021/03/27 00:18:30;;;;;;;5.05;3.75;;;;;;;7.04;48.8623;95210.91;;;;
2021/03/27 00:19:40;;;;;;;5.05;3.75;;;;;;;7.04;48.8623;95210.91;;;;
2021/03/27 00:20:45;;;;;;;5.05;3.75;;;;;;;7.04;48.8623;95210.91;;;;
2021/03/27 00:21:53;;;;;;;5.05;3.75;;;;;;;7.04;48.8623;95210.91;;;;
2021/03/27 00:22:56;;;;;;;5.05;3.75;;;;;;;7.04;48.8623;95210.91;;;;
2021/03/27 00:24:02;;;;;;;5.05;3.75;;;;;;;7.04;48.8623;95210.91;;;;
2021/03/27 00:25:09;;;;;;;5.05;3.75;;;;;;;7.04;48.8623;95210.91;;;;
2021/03/27 00:26:17;;;;;;;5.05;3.75;;;;;;;7.04;48.8623;95210.91;;;;
2021/03/27 00:27:25;;;;;;;5.05;3.75;;;;;;;7.04;48.8623;95210.91;;;;
2021/03/27 00:28:31;;;;;;;5.05;3.75;;;;;;;7.04;48.8623;95210.91;;;;
2021/03/27 00:29:36;;;;;;;4.249999;3.55;;;;;;;7.37;48.61035;95215.52;;;;
2021/03/27 00:30:43;;;;;;;4.249999;3.55;;;;;;;7.37;48.61035;95215.52;;;;
2021/03/27 00:31:49;;;;;;;4.249999;3.55;;;;;;;7.37;48.61035;95215.52;;;;
2021/03/27 00:32:55;;;;;;;4.249999;3.55;;;;;;;7.37;48.61035;95215.52;;;;
2021/03/27 00:33:58;;;;;;;4.249999;3.55;;;;;;;7.37;48.61035;95215.52;;;;
2021/03/27 00:35:04;;;;;;;4.249999;3.55;;;;;;;7.37;48.61035;95215.52;;;;
2021/03/27 00:36:10;;;;;;;4.249999;3.55;;;;;;;7.37;48.61035;95215.52;;;;
2021/03/27 00:37:14;;;;;;;4.249999;3.55;;;;;;;7.37;48.61035;95215.52;;;;
2021/03/27 00:38:20;;;;;;;4.249999;3.55;;;;;;;7.37;48.61035;95215.52;;;;
2021/03/27 00:39:23;;;;;;;4.249999;3.55;;;;;;;7.37;48.61035;95215.52;;;;
2021/03/27 00:40:28;;;;;;;5.750001;3.85;;;;;;;7.51;48.56152;95236.41;;;;
2021/03/27 00:41:32;;;;;;;5.750001;3.85;;;;;;;7.51;48.56152;95236.41;;;;
2021/03/27 00:42:37;;;;;;;5.750001;3.85;;;;;;;7.51;48.56152;95236.41;;;;
2021/03/27 00:43:41;;;;;;;5.750001;3.85;;;;;;;7.51;48.56152;95236.41;;;;
2021/03/27 00:44:46;;;;;;;5.750001;3.85;;;;;;;7.51;48.56152;95236.41;;;;
2021/03/27 00:45:51;;;;;;;5.750001;3.85;;;;;;;7.51;48.56152;95236.41;;;;
2021/03/27 00:46:57;;;;;;;5.750001;3.85;;;;;;;7.51;48.56152;95236.41;;;;
2021/03/27 00:47:59;;;;;;;5.750001;3.85;;;;;;;7.51;48.56152;95236.41;;;;
2021/03/27 00:49:06;;;;;;;5.750001;3.85;;;;;;;7.51;48.56152;95236.41;;;;
2021/03/27 00:50:11;;;;;;;5.750001;3.85;;;;;;;7.51;48.56152;95236.41;;;;
2021/03/27 00:51:23;;;;;;;5.5;3.55;;;;;;;7.43;49.39844;95231.3;;;;
2021/03/27 00:52:27;;;;;;;5.5;3.55;;;;;;;7.43;49.39844;95231.3;;;;
2021/03/27 00:53:33;;;;;;;5.5;3.55;;;;;;;7.43;49.39844;95231.3;;;;
2021/03/27 00:54:39;;;;;;;5.5;3.55;;;;;;;7.43;49.39844;95231.3;;;;
2021/03/27 00:55:44;;;;;;;5.5;3.55;;;;;;;7.43;49.39844;95231.3;;;;
2021/03/27 00:56:51;;;;;;;5.5;3.55;;;;;;;7.43;49.39844;95231.3;;;;
2021/03/27 00:58:07;;;;;;;5.5;3.55;;;;;;;7.43;49.39844;95231.3;;;;
2021/03/27 00:59:13;;;;;;;5.5;3.55;;;;;;;7.43;49.39844;95231.3;;;;
2021/03/27 01:00:20;;;;;;;5.5;3.55;;;;;;;7.43;49.39844;95231.3;;;;
2021/03/27 01:01:36;;;;;;;5.149999;3.9;;;;;;;7.53;49.7832;95205.2;;;;
2021/03/27 01:02:40;;;;;;;5.149999;3.9;;;;;;;7.53;49.7832;95205.2;;;;
2021/03/27 01:03:47;;;;;;;5.149999;3.9;;;;;;;7.53;49.7832;95205.2;;;;
2021/03/27 01:04:52;;;;;;;5.149999;3.9;;;;;;;7.53;49.7832;95205.2;;;;
2021/03/27 01:05:56;;;;;;;5.149999;3.9;;;;;;;7.53;49.7832;95205.2;;;;
2021/03/27 01:06:57;;;;;;;5.149999;3.9;;;;;;;7.53;49.7832;95205.2;;;;
2021/03/27 01:08:02;;;;;;;5.149999;3.9;;;;;;;7.53;49.7832;95205.2;;;;
2021/03/27 01:09:06;;;;;;;5.149999;3.9;;;;;;;7.53;49.7832;95205.2;;;;
2021/03/27 01:10:09;;;;;;;5.149999;3.9;;;;;;;7.53;49.7832;95205.2;;;;
2021/03/27 01:11:17;;;;;;;5.149999;3.9;;;;;;;7.53;49.7832;95205.2;;;;
2021/03/27 01:12:22;;;;;;;5.15;3.7;;;;;;;7.65;49.80957;95204.78;;;;
2021/03/27 01:13:31;;;;;;;5.15;3.7;;;;;;;7.65;49.80957;95204.78;;;;
2021/03/27 01:14:35;;;;;;;5.15;3.7;;;;;;;7.65;49.80957;95204.78;;;;
2021/03/27 01:15:43;;;;;;;5.15;3.7;;;;;;;7.65;49.80957;95204.78;;;;
2021/03/27 01:16:48;;;;;;;5.15;3.7;;;;;;;7.65;49.80957;95204.78;;;;
2021/03/27 01:17:52;;;;;;;5.15;3.7;;;;;;;7.65;49.80957;95204.78;;;;
2021/03/27 01:18:57;;;;;;;5.15;3.7;;;;;;;7.65;49.80957;95204.78;;;;
2021/03/27 01:20:01;;;;;;;5.15;3.7;;;;;;;7.65;49.80957;95204.78;;;;
2021/03/27 01:21:08;;;;;;;5.15;3.7;;;;;;;7.65;49.80957;95204.78;;;;
2021/03/27 01:22:13;;;;;;;5.15;3.7;;;;;;;7.65;49.80957;95204.78;;;;
2021/03/27 01:23:16;;;;;;;5;3.9;;;;;;;7.76;49.79883;95205.5;;;;
2021/03/27 01:24:18;;;;;;;5;3.9;;;;;;;7.76;49.79883;95205.5;;;;
2021/03/27 01:25:23;;;;;;;5;3.9;;;;;;;7.76;49.79883;95205.5;;;;
2021/03/27 01:26:27;;;;;;;5;3.9;;;;;;;7.76;49.79883;95205.5;;;;
2021/03/27 01:27:36;;;;;;;5;3.9;;;;;;;7.76;49.79883;95205.5;;;;
2021/03/27 01:28:46;;;;;;;5;3.9;;;;;;;7.76;49.79883;95205.5;;;;
2021/03/27 01:29:53;;;;;;;5;3.9;;;;;;;7.76;49.79883;95205.5;;;;
2021/03/27 01:31:01;;;;;;;5;3.9;;;;;;;7.76;49.79883;95205.5;;;;
2021/03/27 01:32:09;;;;;;;5;3.9;;;;;;;7.76;49.79883;95205.5;;;;
2021/03/27 01:33:15;;;;;;;4.55;3.4;;;;;;;7.9;49.92188;95184.17;;;;
2021/03/27 01:34:23;;;;;;;4.55;3.4;;;;;;;7.9;49.92188;95184.17;;;;
2021/03/27 01:35:30;;;;;;;4.55;3.4;;;;;;;7.9;49.92188;95184.17;;;;
2021/03/27 01:36:36;;;;;;;4.55;3.4;;;;;;;7.9;49.92188;95184.17;;;;
2021/03/27 01:37:40;;;;;;;4.55;3.4;;;;;;;7.9;49.92188;95184.17;;;;
2021/03/27 01:38:46;;;;;;;4.55;3.4;;;;;;;7.9;49.92188;95184.17;;;;
2021/03/27 01:39:51;;;;;;;4.55;3.4;;;;;;;7.9;49.92188;95184.17;;;;
2021/03/27 01:40:58;;;;;;;4.55;3.4;;;;;;;7.9;49.92188;95184.17;;;;
2021/03/27 01:42:12;;;;;;;4.55;3.4;;;;;;;7.9;49.92188;95184.17;;;;
2021/03/27 01:43:20;;;;;;;4.55;3.4;;;;;;;7.9;49.92188;95184.17;;;;
2021/03/27 01:44:29;;;;;;;6.349999;3.15;;;;;;;8.04;50.02441;95161.1;;;;
2021/03/27 01:45:45;;;;;;;6.349999;3.15;;;;;;;8.04;50.02441;95161.1;;;;
2021/03/27 01:47:16;;;;;;;6.349999;3.15;;;;;;;8.04;50.02441;95161.1;;;;
2021/03/27 01:48:28;;;;;;;6.349999;3.15;;;;;;;8.04;50.02441;95161.1;;;;
2021/03/27 01:49:36;;;;;;;6.349999;3.15;;;;;;;8.04;50.02441;95161.1;;;;
2021/03/27 01:50:49;;;;;;;6.349999;3.15;;;;;;;8.04;50.02441;95161.1;;;;
2021/03/27 01:51:56;;;;;;;6.349999;3.15;;;;;;;8.04;50.02441;95161.1;;;;
2021/03/27 01:53:05;;;;;;;6.349999;3.15;;;;;;;8.04;50.02441;95161.1;;;;
2021/03/27 01:54:45;;;;;;;6.2;3.45;;;;;;;8.01;50.23535;95157.39;;;;
2021/03/27 01:55:55;;;;;;;6.2;3.45;;;;;;;8.01;50.23535;95157.39;;;;
2021/03/27 01:57:06;;;;;;;6.2;3.45;;;;;;;8.01;50.23535;95157.39;;;;
2021/03/27 01:58:20;;;;;;;6.2;3.45;;;;;;;8.01;50.23535;95157.39;;;;
2021/03/27 01:59:25;;;;;;;6.2;3.45;;;;;;;8.01;50.23535;95157.39;;;;
2021/03/27 02:00:30;;;;;;;6.2;3.45;;;;;;;8.01;50.23535;95157.39;;;;
2021/03/27 02:01:36;;;;;;;6.2;3.45;;;;;;;8.01;50.23535;95157.39;;;;
2021/03/27 02:02:41;;;;;;;6.2;3.45;;;;;;;8.01;50.23535;95157.39;;;;
2021/03/27 02:03:46;;;;;;;6.2;3.45;;;;;;;8.01;50.23535;95157.39;;;;
2021/03/27 02:04:53;;;;;;;6.2;3.45;;;;;;;8.01;50.23535;95157.39;;;;
2021/03/27 02:06:05;;;;;;;5.8;3.55;;;;;;;7.96;50.61523;95165.31;;;;
2021/03/27 02:07:11;;;;;;;5.8;3.55;;;;;;;7.96;50.61523;95165.31;;;;
2021/03/27 02:08:21;;;;;;;5.8;3.55;;;;;;;7.96;50.61523;95165.31;;;;
2021/03/27 02:09:35;;;;;;;5.8;3.55;;;;;;;7.96;50.61523;95165.31;;;;
2021/03/27 02:10:53;;;;;;;5.8;3.55;;;;;;;7.96;50.61523;95165.31;;;;
2021/03/27 02:12:03;;;;;;;5.8;3.55;;;;;;;7.96;50.61523;95165.31;;;;
2021/03/27 02:13:09;;;;;;;5.8;3.55;;;;;;;7.96;50.61523;95165.31;;;;
2021/03/27 02:14:19;;;;;;;5.8;3.55;;;;;;;7.96;50.61523;95165.31;;;;
2021/03/27 02:15:29;;;;;;;5.8;3.55;;;;;;;7.96;50.61523;95165.31;;;;
2021/03/27 02:16:39;;;;;;;4.7;3.45;;;;;;;7.94;50.80566;95164.29;;;;
2021/03/27 02:17:48;;;;;;;4.7;3.45;;;;;;;7.94;50.80566;95164.29;;;;
2021/03/27 02:18:52;;;;;;;4.7;3.45;;;;;;;7.94;50.80566;95164.29;;;;
2021/03/27 02:20:06;;;;;;;4.7;3.45;;;;;;;7.94;50.80566;95164.29;;;;
2021/03/27 02:21:25;;;;;;;4.7;3.45;;;;;;;7.94;50.80566;95164.29;;;;
2021/03/27 02:22:40;;;;;;;4.7;3.45;;;;;;;7.94;50.80566;95164.29;;;;
2021/03/27 02:23:46;;;;;;;4.7;3.45;;;;;;;7.94;50.80566;95164.29;;;;
2021/03/27 02:24:56;;;;;;;4.7;3.45;;;;;;;7.94;50.80566;95164.29;;;;
2021/03/27 02:26:13;;;;;;;4.7;3.45;;;;;;;7.94;50.80566;95164.29;;;;
2021/03/27 02:27:25;;;;;;;4.649999;3.15;;;;;;;7.97;50.86328;95153.5;;;;
2021/03/27 02:28:34;;;;;;;4.649999;3.15;;;;;;;7.97;50.86328;95153.5;;;;
2021/03/27 02:29:47;;;;;;;4.649999;3.15;;;;;;;7.97;50.86328;95153.5;;;;
2021/03/27 02:30:59;;;;;;;4.649999;3.15;;;;;;;7.97;50.86328;95153.5;;;;
2021/03/27 02:32:08;;;;;;;4.649999;3.15;;;;;;;7.97;50.86328;95153.5;;;;
2021/03/27 02:33:15;;;;;;;4.649999;3.15;;;;;;;7.97;50.86328;95153.5;;;;
2021/03/27 02:34:37;;;;;;;4.649999;3.15;;;;;;;7.97;50.86328;95153.5;;;;
2021/03/27 02:35:44;;;;;;;4.649999;3.15;;;;;;;7.97;50.86328;95153.5;;;;
2021/03/27 02:36:54;;;;;;;4.649999;3.15;;;;;;;7.97;50.86328;95153.5;;;;
2021/03/27 02:38:03;;;;;;;4.9;3.4;;;;;;;7.97;50.87402;95154.85;;;;
2021/03/27 02:39:18;;;;;;;4.9;3.4;;;;;;;7.97;50.87402;95154.85;;;;
2021/03/27 02:40:23;;;;;;;4.9;3.4;;;;;;;7.97;50.87402;95154.85;;;;
2021/03/27 02:41:30;;;;;;;4.9;3.4;;;;;;;7.97;50.87402;95154.85;;;;
2021/03/27 02:42:41;;;;;;;4.9;3.4;;;;;;;7.97;50.87402;95154.85;;;;
2021/03/27 02:43:55;;;;;;;4.9;3.4;;;;;;;7.97;50.87402;95154.85;;;;
2021/03/27 02:44:58;;;;;;;4.9;3.4;;;;;;;7.97;50.87402;95154.85;;;;
2021/03/27 02:46:09;;;;;;;4.9;3.4;;;;;;;7.97;50.87402;95154.85;;;;
2021/03/27 02:47:14;;;;;;;4.9;3.4;;;;;;;7.97;50.87402;95154.85;;;;
2021/03/27 02:48:30;;;;;;;5.199999;3.5;;;;;;;7.85;50.88086;95183.51;;;;
2021/03/27 02:49:48;;;;;;;5.199999;3.5;;;;;;;7.85;50.88086;95183.51;;;;
2021/03/27 02:50:55;;;;;;;5.199999;3.5;;;;;;;7.85;50.88086;95183.51;;;;
2021/03/27 02:52:07;;;;;;;5.199999;3.5;;;;;;;7.85;50.88086;95183.51;;;;
2021/03/27 02:53:28;;;;;;;5.199999;3.5;;;;;;;7.85;50.88086;95183.51;;;;
2021/03/27 02:54:39;;;;;;;5.199999;3.5;;;;;;;7.85;50.88086;95183.51;;;;
2021/03/27 02:55:55;;;;;;;5.199999;3.5;;;;;;;7.85;50.88086;95183.51;;;;
2021/03/27 02:57:11;;;;;;;5.199999;3.5;;;;;;;7.85;50.88086;95183.51;;;;
2021/03/27 02:58:19;;;;;;;5.199999;3.5;;;;;;;7.85;50.88086;95183.51;;;;
2021/03/27 02:59:26;;;;;;;7.1;3.75;;;;;;;7.59;51.46094;95192.76;;;;
2021/03/27 03:00:39;;;;;;;7.1;3.75;;;;;;;7.59;51.46094;95192.76;;;;
2021/03/27 03:01:47;;;;;;;7.1;3.75;;;;;;;7.59;51.46094;95192.76;;;;
2021/03/27 03:02:57;;;;;;;7.1;3.75;;;;;;;7.59;51.46094;95192.76;;;;
2021/03/27 03:04:03;;;;;;;7.1;3.75;;;;;;;7.59;51.46094;95192.76;;;;
2021/03/27 03:05:10;;;;;;;7.1;3.75;;;;;;;7.59;51.46094;95192.76;;;;
2021/03/27 03:06:18;;;;;;;7.1;3.75;;;;;;;7.59;51.46094;95192.76;;;;
2021/03/27 03:07:28;;;;;;;7.1;3.75;;;;;;;7.59;51.46094;95192.76;;;;
2021/03/27 03:08:35;;;;;;;7.1;3.75;;;;;;;7.59;51.46094;95192.76;;;;
2021/03/27 03:09:43;;;;;;;5.15;3.5;;;;;;;7.32;51.37598;95201.93;;;;
2021/03/27 03:10:50;;;;;;;5.15;3.5;;;;;;;7.32;51.37598;95201.93;;;;
2021/03/27 03:11:58;;;;;;;5.15;3.5;;;;;;;7.32;51.37598;95201.93;;;;
2021/03/27 03:13:12;;;;;;;5.15;3.5;;;;;;;7.32;51.37598;95201.93;;;;
2021/03/27 03:14:20;;;;;;;5.15;3.5;;;;;;;7.32;51.37598;95201.93;;;;
2021/03/27 03:15:26;;;;;;;5.15;3.5;;;;;;;7.32;51.37598;95201.93;;;;
2021/03/27 03:16:32;;;;;;;5.15;3.5;;;;;;;7.32;51.37598;95201.93;;;;
2021/03/27 03:17:40;;;;;;;5.15;3.5;;;;;;;7.32;51.37598;95201.93;;;;
2021/03/27 03:18:47;;;;;;;5.15;3.5;;;;;;;7.32;51.37598;95201.93;;;;
2021/03/27 03:19:58;;;;;;;5;3.5;;;;;;;7.05;51.61035;95209.48;;;;
2021/03/27 03:21:10;;;;;;;5;3.5;;;;;;;7.05;51.61035;95209.48;;;;
2021/03/27 03:22:20;;;;;;;5;3.5;;;;;;;7.05;51.61035;95209.48;;;;
2021/03/27 03:23:29;;;;;;;5;3.5;;;;;;;7.05;51.61035;95209.48;;;;
2021/03/27 03:24:35;;;;;;;5;3.5;;;;;;;7.05;51.61035;95209.48;;;;
2021/03/27 03:25:40;;;;;;;5;3.5;;;;;;;7.05;51.61035;95209.48;;;;
2021/03/27 03:26:49;;;;;;;5;3.5;;;;;;;7.05;51.61035;95209.48;;;;
2021/03/27 03:28:05;;;;;;;5;3.5;;;;;;;7.05;51.61035;95209.48;;;;
2021/03/27 03:29:20;;;;;;;5;3.5;;;;;;;7.05;51.61035;95209.48;;;;
2021/03/27 03:30:38;;;;;;;5.950001;4.05;;;;;;;6.79;51.94336;95230.56;;;;
2021/03/27 03:31:47;;;;;;;5.950001;4.05;;;;;;;6.79;51.94336;95230.56;;;;
2021/03/27 03:32:58;;;;;;;5.950001;4.05;;;;;;;6.79;51.94336;95230.56;;;;
2021/03/27 03:34:27;;;;;;;5.950001;4.05;;;;;;;6.79;51.94336;95230.56;;;;
2021/03/27 03:35:43;;;;;;;5.950001;4.05;;;;;;;6.79;51.94336;95230.56;;;;
2021/03/27 03:36:52;;;;;;;5.950001;4.05;;;;;;;6.79;51.94336;95230.56;;;;
2021/03/27 03:38:02;;;;;;;5.950001;4.05;;;;;;;6.79;51.94336;95230.56;;;;
2021/03/27 03:39:18;;;;;;;5.950001;4.05;;;;;;;6.79;51.94336;95230.56;;;;
2021/03/27 03:40:31;;;;;;;5.950001;4.05;;;;;;;6.79;51.94336;95230.56;;;;
2021/03/27 03:41:48;;;;;;;5.5;4.5;;;;;;;6.72;52.21191;95232.05;;;;
2021/03/27 03:42:53;;;;;;;5.5;4.5;;;;;;;6.72;52.21191;95232.05;;;;
2021/03/27 03:44:11;;;;;;;5.5;4.5;;;;;;;6.72;52.21191;95232.05;;;;
2021/03/27 03:45:20;;;;;;;5.5;4.5;;;;;;;6.72;52.21191;95232.05;;;;
2021/03/27 03:46:36;;;;;;;5.5;4.5;;;;;;;6.72;52.21191;95232.05;;;;
2021/03/27 03:47:47;;;;;;;5.5;4.5;;;;;;;6.72;52.21191;95232.05;;;;
2021/03/27 03:48:55;;;;;;;5.5;4.5;;;;;;;6.72;52.21191;95232.05;;;;
2021/03/27 03:50:14;;;;;;;5.5;4.5;;;;;;;6.72;52.21191;95232.05;;;;
2021/03/27 03:51:25;;;;;;;5.5;4.5;;;;;;;6.72;52.21191;95232.05;;;;
2021/03/27 03:52:37;;;;;;;8.299999;4.600001;;;;;;;6.61;52.44336;95243.44;;;;
2021/03/27 03:53:51;;;;;;;8.299999;4.600001;;;;;;;6.61;52.44336;95243.44;;;;
2021/03/27 03:55:08;;;;;;;8.299999;4.600001;;;;;;;6.61;52.44336;95243.44;;;;
2021/03/27 03:56:21;;;;;;;8.299999;4.600001;;;;;;;6.61;52.44336;95243.44;;;;
2021/03/27 03:57:31;;;;;;;8.299999;4.600001;;;;;;;6.61;52.44336;95243.44;;;;
2021/03/27 03:58:49;;;;;;;8.299999;4.600001;;;;;;;6.61;52.44336;95243.44;;;;
2021/03/27 04:00:00;;;;;;;8.299999;4.600001;;;;;;;6.61;52.44336;95243.44;;;;
2021/03/27 04:01:11;;;;;;;8.299999;4.600001;;;;;;;6.61;52.44336;95243.44;;;;
2021/03/27 04:02:18;;;;;;;8.299999;4.600001;;;;;;;6.61;52.44336;95243.44;;;;
2021/03/27 04:03:26;;;;;;;5.75;4.65;;;;;;;6.57;52.67188;95248.08;;;;
2021/03/27 04:04:35;;;;;;;5.75;4.65;;;;;;;6.57;52.67188;95248.08;;;;
2021/03/27 04:05:43;;;;;;;5.75;4.65;;;;;;;6.57;52.67188;95248.08;;;;
2021/03/27 04:06:54;;;;;;;5.75;4.65;;;;;;;6.57;52.67188;95248.08;;;;
2021/03/27 04:08:00;;;;;;;5.75;4.65;;;;;;;6.57;52.67188;95248.08;;;;
2021/03/27 04:09:09;;;;;;;5.75;4.65;;;;;;;6.57;52.67188;95248.08;;;;
2021/03/27 04:10:16;;;;;;;5.75;4.65;;;;;;;6.57;52.67188;95248.08;;;;
2021/03/27 04:11:19;;;;;;;5.75;4.65;;;;;;;6.57;52.67188;95248.08;;;;
2021/03/27 04:12:44;;;;;;;5.75;4.65;;;;;;;6.57;52.67188;95248.08;;;;
2021/03/27 04:13:50;;;;;;;5.65;4.6;;;;;;;6.58;52.87598;95259.55;;;;
2021/03/27 04:14:54;;;;;;;5.65;4.6;;;;;;;6.58;52.87598;95259.55;;;;
2021/03/27 04:16:08;;;;;;;5.65;4.6;;;;;;;6.58;52.87598;95259.55;;;;
2021/03/27 04:17:13;;;;;;;5.65;4.6;;;;;;;6.58;52.87598;95259.55;;;;
2021/03/27 04:18:20;;;;;;;5.65;4.6;;;;;;;6.58;52.87598;95259.55;;;;
2021/03/27 04:19:28;;;;;;;5.65;4.6;;;;;;;6.58;52.87598;95259.55;;;;
2021/03/27 04:20:32;;;;;;;5.65;4.6;;;;;;;6.58;52.87598;95259.55;;;;
2021/03/27 04:21:45;;;;;;;5.65;4.6;;;;;;;6.58;52.87598;95259.55;;;;
2021/03/27 04:23:02;;;;;;;5.65;4.6;;;;;;;6.58;52.87598;95259.55;;;;
2021/03/27 04:24:25;;;;;;;5.85;4.55;;;;;;;6.62;52.90332;95273.77;;;;
2021/03/27 04:25:29;;;;;;;5.85;4.55;;;;;;;6.62;52.90332;95273.77;;;;
2021/03/27 04:26:34;;;;;;;5.85;4.55;;;;;;;6.62;52.90332;95273.77;;;;
2021/03/27 04:27:47;;;;;;;5.85;4.55;;;;;;;6.62;52.90332;95273.77;;;;
2021/03/27 04:28:56;;;;;;;5.85;4.55;;;;;;;6.62;52.90332;95273.77;;;;
2021/03/27 04:30:10;;;;;;;5.85;4.55;;;;;;;6.62;52.90332;95273.77;;;;
2021/03/27 04:31:26;;;;;;;5.85;4.55;;;;;;;6.62;52.90332;95273.77;;;;
2021/03/27 04:32:31;;;;;;;5.85;4.55;;;;;;;6.62;52.90332;95273.77;;;;
2021/03/27 04:33:40;;;;;;;5.85;4.55;;;;;;;6.62;52.90332;95273.77;;;;
2021/03/27 04:34:49;;;;;;;6.3;4.6;;;;;;;6.72;53.13867;95295.6;;;;
2021/03/27 04:35:55;;;;;;;6.3;4.6;;;;;;;6.72;53.13867;95295.6;;;;
2021/03/27 04:36:59;;;;;;;6.3;4.6;;;;;;;6.72;53.13867;95295.6;;;;
2021/03/27 04:38:05;;;;;;;6.3;4.6;;;;;;;6.72;53.13867;95295.6;;;;
2021/03/27 04:39:14;;;;;;;6.3;4.6;;;;;;;6.72;53.13867;95295.6;;;;
2021/03/27 04:40:20;;;;;;;6.3;4.6;;;;;;;6.72;53.13867;95295.6;;;;
2021/03/27 04:41:31;;;;;;;6.3;4.6;;;;;;;6.72;53.13867;95295.6;;;;
2021/03/27 04:42:41;;;;;;;6.3;4.6;;;;;;;6.72;53.13867;95295.6;;;;
2021/03/27 04:43:47;;;;;;;6.3;4.6;;;;;;;6.72;53.13867;95295.6;;;;
2021/03/27 04:44:56;;;;;;;6.3;4.6;;;;;;;6.72;53.13867;95295.6;;;;
2021/03/27 04:46:06;;;;;;;5.2;4.25;;;;;;;6.83;53.22852;95309.61;;;;
2021/03/27 04:47:15;;;;;;;5.2;4.25;;;;;;;6.83;53.22852;95309.61;;;;
2021/03/27 04:48:20;;;;;;;5.2;4.25;;;;;;;6.83;53.22852;95309.61;;;;
2021/03/27 04:49:29;;;;;;;5.2;4.25;;;;;;;6.83;53.22852;95309.61;;;;
2021/03/27 04:50:41;;;;;;;5.2;4.25;;;;;;;6.83;53.22852;95309.61;;;;
2021/03/27 04:51:47;;;;;;;5.2;4.25;;;;;;;6.83;53.22852;95309.61;;;;
2021/03/27 04:53:00;;;;;;;5.2;4.25;;;;;;;6.83;53.22852;95309.61;;;;
2021/03/27 04:54:08;;;;;;;5.2;4.25;;;;;;;6.83;53.22852;95309.61;;;;
2021/03/27 04:55:19;;;;;;;5.2;4.25;;;;;;;6.83;53.22852;95309.61;;;;
2021/03/27 04:56:30;;;;;;;6.200001;5;;;;;;;6.94;53.42285;95327.33;;;;
2021/03/27 04:57:40;;;;;;;6.200001;5;;;;;;;6.94;53.42285;95327.33;;;;
2021/03/27 04:58:46;;;;;;;6.200001;5;;;;;;;6.94;53.42285;95327.33;;;;
2021/03/27 04:59:53;;;;;;;6.200001;5;;;;;;;6.94;53.42285;95327.33;;;;
2021/03/27 05:01:06;;;;;;;6.200001;5;;;;;;;6.94;53.42285;95327.33;;;;
2021/03/27 05:02:18;;;;;;;6.200001;5;;;;;;;6.94;53.42285;95327.33;;;;
2021/03/27 05:03:28;;;;;;;6.200001;5;;;;;;;6.94;53.42285;95327.33;;;;
2021/03/27 05:04:33;;;;;;;6.200001;5;;;;;;;6.94;53.42285;95327.33;;;;
2021/03/27 05:05:44;;;;;;;6.200001;5;;;;;;;6.94;53.42285;95327.33;;;;
2021/03/27 05:06:54;;;;;;;8.9;6.450001;;;;;;;7.25;54.50879;95347.63;;;;
2021/03/27 05:08:01;;;;;;;8.9;6.450001;;;;;;;7.25;54.50879;95347.63;;;;
2021/03/27 05:09:12;;;;;;;8.9;6.450001;;;;;;;7.25;54.50879;95347.63;;;;
2021/03/27 05:10:28;;;;;;;8.9;6.450001;;;;;;;7.25;54.50879;95347.63;;;;
2021/03/27 05:11:36;;;;;;;8.9;6.450001;;;;;;;7.25;54.50879;95347.63;;;;
2021/03/27 05:12:45;;;;;;;8.9;6.450001;;;;;;;7.25;54.50879;95347.63;;;;
2021/03/27 05:14:00;;;;;;;8.9;6.450001;;;;;;;7.25;54.50879;95347.63;;;;
2021/03/27 05:15:08;;;;;;;8.9;6.450001;;;;;;;7.25;54.50879;95347.63;;;;
2021/03/27 05:16:16;;;;;;;8.9;6.450001;;;;;;;7.25;54.50879;95347.63;;;;
2021/03/27 05:17:21;;;;;;;8.599999;7.1;;;;;;;7.8;55.35742;95349.58;;;;
2021/03/27 05:18:33;;;;;;;8.599999;7.1;;;;;;;7.8;55.35742;95349.58;;;;
2021/03/27 05:19:46;;;;;;;8.599999;7.1;;;;;;;7.8;55.35742;95349.58;;;;
2021/03/27 05:20:55;;;;;;;8.599999;7.1;;;;;;;7.8;55.35742;95349.58;;;;
2021/03/27 05:22:07;;;;;;;8.599999;7.1;;;;;;;7.8;55.35742;95349.58;;;;
2021/03/27 05:23:23;;;;;;;8.599999;7.1;;;;;;;7.8;55.35742;95349.58;;;;
2021/03/27 05:24:35;;;;;;;8.599999;7.1;;;;;;;7.8;55.35742;95349.58;;;;
2021/03/27 05:26:04;;;;;;;8.599999;7.1;;;;;;;7.8;55.35742;95349.58;;;;
2021/03/27 05:27:13;;;;;;;8.599999;7.1;;;;;;;7.8;55.35742;95349.58;;;;
2021/03/27 05:28:26;;;;;;;9.850001;6.9;;;;;;;8.15;55.63672;95360.71;;;;
2021/03/27 05:29:46;;;;;;;9.850001;6.9;;;;;;;8.15;55.63672;95360.71;;;;
2021/03/27 05:30:59;;;;;;;9.850001;6.9;;;;;;;8.15;55.63672;95360.71;;;;
2021/03/27 05:32:10;;;;;;;9.850001;6.9;;;;;;;8.15;55.63672;95360.71;;;;
2021/03/27 05:33:44;;;;;;;9.850001;6.9;;;;;;;8.15;55.63672;95360.71;;;;
2021/03/27 05:34:58;;;;;;;9.850001;6.9;;;;;;;8.15;55.63672;95360.71;;;;
2021/03/27 05:36:08;;;;;;;9.850001;6.9;;;;;;;8.15;55.63672;95360.71;;;;
2021/03/27 05:37:24;;;;;;;9.850001;6.9;;;;;;;8.15;55.63672;95360.71;;;;
2021/03/27 05:38:37;;;;;;;9.75;7.4;;;;;;;8.41;56.38867;95398.07;;;;
2021/03/27 05:39:43;;;;;;;9.75;7.4;;;;;;;8.41;56.38867;95398.07;;;;
2021/03/27 05:40:52;;;;;;;9.75;7.4;;;;;;;8.41;56.38867;95398.07;;;;
2021/03/27 05:42:18;;;;;;;9.75;7.4;;;;;;;8.41;56.38867;95398.07;;;;
2021/03/27 05:44:45;;;;;;;9.75;7.4;;;;;;;8.41;56.38867;95398.07;;;;
2021/03/27 05:46:36;;;;;;;9.75;7.4;;;;;;;8.41;56.38867;95398.07;;;;
2021/03/27 05:49:15;;;;;;;9.75;7.4;;;;;;;8.41;56.38867;95398.07;;;;
2021/03/27 05:58:39;;;;;;;9.5;7.4;;;;;;;8.6;56.6709;95421.8;;;;
2021/03/27 05:59:55;;;;;;;9.5;7.4;;;;;;;8.6;56.6709;95421.8;;;;
2021/03/27 06:01:21;;;;;;;9.300001;7.049999;;;;;;;8.84;56.88477;95444.26;;;;
2021/03/27 06:02:31;;;;;;;9.300001;7.049999;;;;;;;8.84;56.88477;95444.26;;;;
2021/03/27 06:03:51;;;;;;;9.300001;7.049999;;;;;;;8.84;56.88477;95444.26;;;;
2021/03/27 06:05:04;;;;;;;9.300001;7.049999;;;;;;;8.84;56.88477;95444.26;;;;
2021/03/27 06:06:58;;;;;;;9.300001;7.049999;;;;;;;8.84;56.88477;95444.26;;;;
2021/03/27 06:08:36;;;;;;;9.300001;7.049999;;;;;;;8.84;56.88477;95444.26;;;;
2021/03/27 06:09:50;;;;;;;9.300001;7.049999;;;;;;;8.84;56.88477;95444.26;;;;
2021/03/27 06:11:12;;;;;;;7.2;5.499999;;;;;;;9.2;58.49512;95453.44;;;;
2021/03/27 06:12:31;;;;;;;7.2;5.499999;;;;;;;9.2;58.49512;95453.44;;;;
2021/03/27 06:13:42;;;;;;;7.2;5.499999;;;;;;;9.2;58.49512;95453.44;;;;
2021/03/27 06:15:05;;;;;;;7.2;5.499999;;;;;;;9.2;58.49512;95453.44;;;;
2021/03/27 06:16:17;;;;;;;7.2;5.499999;;;;;;;9.2;58.49512;95453.44;;;;
2021/03/27 06:18:33;;;;;;;7.2;5.499999;;;;;;;9.2;58.49512;95453.44;;;;
2021/03/27 06:20:00;;;;;;;7.2;5.499999;;;;;;;9.2;58.49512;95453.44;;;;
2021/03/27 06:21:22;;;;;;;5.95;4.4;;;;;;;9.45;58.96875;95466.33;;;;
2021/03/27 06:22:34;;;;;;;5.95;4.4;;;;;;;9.45;58.96875;95466.33;;;;
2021/03/27 06:23:55;;;;;;;5.95;4.4;;;;;;;9.45;58.96875;95466.33;;;;
2021/03/27 06:25:05;;;;;;;5.95;4.4;;;;;;;9.45;58.96875;95466.33;;;;
2021/03/27 06:26:33;;;;;;;5.95;4.4;;;;;;;9.45;58.96875;95466.33;;;;
2021/03/27 06:27:54;;;;;;;5.95;4.4;;;;;;;9.45;58.96875;95466.33;;;;
2021/03/27 06:29:16;;;;;;;5.95;4.4;;;;;;;9.45;58.96875;95466.33;;;;
2021/03/27 06:31:07;;;;;;;5.95;4.4;;;;;;;9.45;58.96875;95466.33;;;;
2021/03/27 06:32:24;;;;;;;3.7;3.3;;;;;;;9.68;59.62207;95483.61;;;;
2021/03/27 06:34:00;;;;;;;3.7;3.3;;;;;;;9.68;59.62207;95483.61;;;;
2021/03/27 06:35:24;;;;;;;3.7;3.3;;;;;;;9.68;59.62207;95483.61;;;;
2021/03/27 06:36:41;;;;;;;3.7;3.3;;;;;;;9.68;59.62207;95483.61;;;;
2021/03/27 06:37:55;;;;;;;3.7;3.3;;;;;;;9.68;59.62207;95483.61;;;;
2021/03/27 06:39:12;;;;;;;3.7;3.3;;;;;;;9.68;59.62207;95483.61;;;;
2021/03/27 06:40:32;;;;;;;3.7;3.3;;;;;;;9.68;59.62207;95483.61;;;;
2021/03/27 06:41:57;;;;;;;3.7;3.3;;;;;;;9.68;59.62207;95483.61;;;;
2021/03/27 06:43:16;;;;;;;3.85;3.05;;;;;;;9.87;59.48828;95504.52;;;;
2021/03/27 06:44:27;;;;;;;3.85;3.05;;;;;;;9.87;59.48828;95504.52;;;;
2021/03/27 06:45:48;;;;;;;3.85;3.05;;;;;;;9.87;59.48828;95504.52;;;;
2021/03/27 06:46:57;;;;;;;3.85;3.05;;;;;;;9.87;59.48828;95504.52;;;;
2021/03/27 06:48:17;;;;;;;3.85;3.05;;;;;;;9.87;59.48828;95504.52;;;;
2021/03/27 06:49:57;;;;;;;3.85;3.05;;;;;;;9.87;59.48828;95504.52;;;;
2021/03/27 06:51:15;;;;;;;3.85;3.05;;;;;;;9.87;59.48828;95504.52;;;;
2021/03/27 06:52:32;;;;;;;3.85;3.05;;;;;;;9.87;59.48828;95504.52;;;;
2021/03/27 06:53:47;;;;;;;4.05;3.3;;;;;;;9.97;59.46875;95520.04;;;;
2021/03/27 06:55:13;;;;;;;4.05;3.3;;;;;;;9.97;59.46875;95520.04;;;;
2021/03/27 06:56:30;;;;;;;4.05;3.3;;;;;;;9.97;59.46875;95520.04;;;;